This is the latest recevied weather packets stored in our database for station/object EA3CTN-13. If no packets are shown the sender has not sent any weather packets the latest 10 day(s).
| Time | Temp. | Humidity | Pressure | Rain* | Wind** | Luminosity | Snow |
|---|---|---|---|---|---|---|---|
| 1777846878 | 18.33° C | 67% | 1015.2 hPa | - | - | - | - |
| 1777845438 | 18.33° C | 67% | 1015.2 hPa | - | - | - | - |
| 1777843998 | 18.89° C | 67% | 1015.3 hPa | - | - | - | - |
| 1777843037 | 18.89° C | 66% | 1015.2 hPa | - | - | - | - |
| 1777841118 | 18.89° C | 68% | 1015.4 hPa | - | - | - | - |
| 1777414045 | 22.22° C | 56% | 1013.9 hPa | - | - | - | - |
| 1777412125 | 22.22° C | 54% | 1013.4 hPa | - | - | - | - |
| 1777410685 | 22.22° C | 53% | 1013 hPa | - | - | - | - |
| 1777410205 | 22.22° C | 54% | 1012.9 hPa | - | - | - | - |
| 1777409725 | 22.22° C | 53% | 1012.8 hPa | - | - | - | - |
| 1777408285 | 22.22° C | 52% | 1012.8 hPa | - | - | - | - |
| 1777407325 | 22.78° C | 52% | 1012.7 hPa | - | - | - | - |
| 1777406365 | 22.78° C | 50% | 1012.5 hPa | - | - | - | - |
| 1777404925 | 22.78° C | 50% | 1011.9 hPa | - | - | - | - |
| 1777403968 | 23.33° C | 49% | 1011.9 hPa | - | - | - | - |
| 1777403485 | 23.33° C | 49% | 1011.8 hPa | - | - | - | - |
| 1777401085 | 23.89° C | 46% | 1011.9 hPa | - | - | - | - |
| 1777400125 | 24.44° C | 45% | 1012 hPa | - | - | - | - |
| 1777399645 | 24.44° C | 44% | 1012 hPa | - | - | - | - |
| 1777399165 | 24.44° C | 44% | 1012.3 hPa | - | - | - | - |
| 1777398685 | 25° C | 43% | 1012.3 hPa | - | - | - | - |
| 1777397725 | 25° C | 41% | 1012.4 hPa | - | - | - | - |
| 1777397245 | 25.56° C | 41% | 1012.4 hPa | - | - | - | - |
| 1777396765 | 25.56° C | 41% | 1012.5 hPa | - | - | - | - |
| 1777396285 | 26.11° C | 38% | 1012.5 hPa | - | - | - | - |
* Rain since midnight (hover to see other rain measurements)
** Current wind speed in m/s (hover to see current wind gust speed)